Time;durP1;ratioP1;P1;durP2;ratioP2;P2;SDS_P1;SDS_P2;PMS_P1;PMS_P2;Temp;Humidity;BMP_temperature;BMP_pressure;BME280_temperature;BME280_humidity;BME280_pressure;Samples;Min_cycle;Max_cycle;Signal;HPM_P1;HPM_P2
2023/07/08 00:01:55;;;;;;;;;;;16.50;99.90;;;;;;4956342;28;19930;-87
2023/07/08 00:04:21;;;;;;;;;;;16.40;99.90;;;;;;4966083;28;19972;-87
2023/07/08 00:06:47;;;;;;;;;;;16.40;99.90;;;;;;4950000;28;19969;-87
2023/07/08 00:09:13;;;;;;;;;;;16.40;99.90;;;;;;4957187;28;19930;-87
2023/07/08 00:11:39;;;;;;;;;;;16.30;99.90;;;;;;4955775;28;19937;-87
2023/07/08 00:14:04;;;;;;;;;;;16.20;99.90;;;;;;4956114;28;20401;-87
2023/07/08 00:16:30;;;;;;;;;;;16.10;99.90;;;;;;4955949;28;19925;-86
2023/07/08 00:18:55;;;;;;;;;;;16.10;99.90;;;;;;4956836;28;19925;-87
2023/07/08 00:21:21;;;;;;;;;;;16.10;99.90;;;;;;4956312;28;19930;-87
2023/07/08 00:23:47;;;;;;;;;;;16.10;99.90;;;;;;4955548;28;20389;-87
2023/07/08 00:26:17;;;;;;;;;;;16.00;99.90;;;;;;4956314;28;19992;-87
2023/07/08 00:28:42;;;;;;;;;;;16.00;99.90;;;;;;4959370;28;19925;-88
2023/07/08 00:31:09;;;;;;;;;;;16.00;99.90;;;;;;4956516;28;20333;-88
2023/07/08 00:33:35;;;;;;;;;;;16.00;99.90;;;;;;4956487;28;19937;-88
2023/07/08 00:36:00;;;;;;;;;;;15.90;99.90;;;;;;4954924;28;19925;-88
2023/07/08 00:38:27;;;;;;;;;;;15.90;99.90;;;;;;4956648;28;20366;-87
2023/07/08 00:40:58;;;;;;;;;;;15.80;99.90;;;;;;4955826;28;19929;-87
2023/07/08 00:43:28;;;;;;;;;;;15.80;99.90;;;;;;4955351;28;19925;-88
2023/07/08 00:46:01;;;;;;;;;;;15.80;99.90;;;;;;4955256;28;20069;-87
2023/07/08 00:48:33;;;;;;;;;;;15.80;99.90;;;;;;4972127;28;20384;-88
2023/07/08 00:50:58;;;;;;;;;;;15.70;99.90;;;;;;4955395;28;19933;-88
2023/07/08 00:53:26;;;;;;;;;;;15.70;99.90;;;;;;4956136;28;19926;-87
2023/07/08 00:55:53;;;;;;;;;;;15.70;99.90;;;;;;4954479;28;19996;-87
2023/07/08 00:58:20;;;;;;;;;;;15.60;99.90;;;;;;4972039;28;20378;-87
2023/07/08 01:00:46;;;;;;;;;;;15.60;99.90;;;;;;4955366;28;20328;-87
2023/07/08 01:03:11;;;;;;;;;;;15.70;99.90;;;;;;4956276;28;19937;-86
2023/07/08 01:05:38;;;;;;;;;;;15.60;99.90;;;;;;4956212;28;20006;-86
2023/07/08 01:08:05;;;;;;;;;;;15.60;99.90;;;;;;4956920;28;20063;-87
2023/07/08 01:10:33;;;;;;;;;;;15.60;99.90;;;;;;4955790;28;19952;-88
2023/07/08 01:13:01;;;;;;;;;;;15.50;99.90;;;;;;4956844;28;19926;-87
2023/07/08 01:15:31;;;;;;;;;;;15.50;99.90;;;;;;4956000;28;20003;-85
2023/07/08 01:17:57;;;;;;;;;;;15.50;99.90;;;;;;4956839;28;19977;-87
2023/07/08 01:20:22;;;;;;;;;;;15.50;99.90;;;;;;4956163;28;20345;-87
2023/07/08 01:22:48;;;;;;;;;;;15.50;99.90;;;;;;4956959;28;19926;-87
2023/07/08 01:25:14;;;;;;;;;;;15.50;99.90;;;;;;4956241;28;19953;-86
2023/07/08 01:27:42;;;;;;;;;;;15.40;99.90;;;;;;4956233;28;19930;-88
2023/07/08 01:30:10;;;;;;;;;;;15.40;99.90;;;;;;4956707;28;19932;-86
2023/07/08 01:32:37;;;;;;;;;;;15.30;99.90;;;;;;4955679;28;19933;-86
2023/07/08 01:35:03;;;;;;;;;;;15.30;99.90;;;;;;4959414;28;19936;-87
2023/07/08 01:37:31;;;;;;;;;;;15.30;99.90;;;;;;4959901;28;19925;-86
2023/07/08 01:39:56;;;;;;;;;;;15.30;99.90;;;;;;4959836;28;19926;-87
2023/07/08 01:42:22;;;;;;;;;;;15.40;99.90;;;;;;4960009;28;20374;-87
2023/07/08 01:44:48;;;;;;;;;;;15.30;99.90;;;;;;4958874;28;20013;-87
2023/07/08 01:47:16;;;;;;;;;;;15.30;99.90;;;;;;4976360;28;19925;-87
2023/07/08 01:49:43;;;;;;;;;;;15.30;99.90;;;;;;4959353;28;19938;-86
2023/07/08 01:52:08;;;;;;;;;;;15.20;99.90;;;;;;4960339;28;19926;-86
2023/07/08 01:54:34;;;;;;;;;;;15.20;99.90;;;;;;4975911;28;19926;-87
2023/07/08 01:57:01;;;;;;;;;;;15.20;99.90;;;;;;4981594;28;19926;-87
2023/07/08 01:59:27;;;;;;;;;;;15.20;99.90;;;;;;4959067;28;19929;-87
2023/07/08 02:01:54;;;;;;;;;;;15.20;99.90;;;;;;4958539;28;19933;-87
2023/07/08 02:04:21;;;;;;;;;;;15.20;99.90;;;;;;4959929;28;19932;-88
2023/07/08 02:06:52;;;;;;;;;;;15.20;99.90;;;;;;4958420;28;19933;-87
2023/07/08 02:09:17;;;;;;;;;;;15.20;99.90;;;;;;4948485;28;19926;-87
2023/07/08 02:11:43;;;;;;;;;;;15.30;99.90;;;;;;4958794;28;19949;-87
2023/07/08 02:14:08;;;;;;;;;;;15.30;99.90;;;;;;4959865;28;19926;-87
2023/07/08 02:16:34;;;;;;;;;;;15.30;99.90;;;;;;4959698;28;19984;-86
2023/07/08 02:18:59;;;;;;;;;;;15.20;99.90;;;;;;4959643;28;20346;-88
2023/07/08 02:21:25;;;;;;;;;;;15.30;99.90;;;;;;4959339;28;20361;-87
2023/07/08 02:23:51;;;;;;;;;;;15.30;99.90;;;;;;4959657;28;19926;-87
2023/07/08 02:26:17;;;;;;;;;;;15.30;99.90;;;;;;4985112;28;20339;-87
2023/07/08 02:28:42;;;;;;;;;;;15.30;99.90;;;;;;4958803;28;19926;-87
2023/07/08 02:31:08;;;;;;;;;;;15.30;99.90;;;;;;4958914;28;19925;-87
2023/07/08 02:33:34;;;;;;;;;;;15.40;99.90;;;;;;4959483;28;19926;-87
2023/07/08 02:36:01;;;;;;;;;;;15.40;99.90;;;;;;4959343;28;19933;-87
2023/07/08 02:38:26;;;;;;;;;;;15.40;99.90;;;;;;4959191;28;20017;-87
2023/07/08 02:40:52;;;;;;;;;;;15.40;99.90;;;;;;4975032;28;20040;-87
2023/07/08 02:43:17;;;;;;;;;;;15.40;99.90;;;;;;4958908;28;19937;-87
2023/07/08 02:45:43;;;;;;;;;;;15.40;99.90;;;;;;4952792;28;19933;-87
2023/07/08 02:48:08;;;;;;;;;;;15.40;99.90;;;;;;4954680;28;20017;-88
2023/07/08 02:50:34;;;;;;;;;;;15.50;99.90;;;;;;4954260;28;19933;-88
2023/07/08 02:53:00;;;;;;;;;;;15.50;99.90;;;;;;4955136;28;20032;-87
2023/07/08 02:55:25;;;;;;;;;;;15.40;99.90;;;;;;4953885;28;20348;-87
2023/07/08 02:57:51;;;;;;;;;;;15.50;99.90;;;;;;4954505;28;20390;-88
2023/07/08 03:00:16;;;;;;;;;;;15.40;99.90;;;;;;4955063;28;19927;-87
2023/07/08 03:02:42;;;;;;;;;;;15.40;99.90;;;;;;4953772;28;20368;-87
2023/07/08 03:05:08;;;;;;;;;;;15.40;99.90;;;;;;4954743;28;19930;-88
2023/07/08 03:07:33;;;;;;;;;;;15.40;99.90;;;;;;4954544;28;19928;-88
2023/07/08 03:09:59;;;;;;;;;;;15.40;99.90;;;;;;4953985;28;20301;-88
2023/07/08 03:12:25;;;;;;;;;;;15.40;99.90;;;;;;4954066;28;20247;-88
2023/07/08 03:14:50;;;;;;;;;;;15.40;99.90;;;;;;4970167;28;19948;-88
2023/07/08 03:17:17;;;;;;;;;;;15.40;99.90;;;;;;4953610;28;19961;-88
2023/07/08 03:19:43;;;;;;;;;;;15.30;99.90;;;;;;4953547;28;19926;-87
2023/07/08 03:22:09;;;;;;;;;;;15.30;99.90;;;;;;4970576;28;19926;-88
2023/07/08 03:24:34;;;;;;;;;;;15.30;99.90;;;;;;4953710;28;19984;-88
2023/07/08 03:27:04;;;;;;;;;;;15.30;99.90;;;;;;4953686;28;20033;-87
2023/07/08 03:29:30;;;;;;;;;;;15.30;99.90;;;;;;4953978;28;19934;-87
2023/07/08 03:31:56;;;;;;;;;;;15.40;99.90;;;;;;4952846;28;19926;-87
2023/07/08 03:34:21;;;;;;;;;;;15.40;99.90;;;;;;4954277;28;19981;-88
2023/07/08 03:36:48;;;;;;;;;;;15.40;99.90;;;;;;4953692;28;19930;-87
2023/07/08 03:39:15;;;;;;;;;;;15.40;99.90;;;;;;4952157;28;19926;-88
2023/07/08 03:41:40;;;;;;;;;;;15.40;99.90;;;;;;4952968;28;19937;-88
2023/07/08 03:44:06;;;;;;;;;;;15.40;99.90;;;;;;4955300;28;19926;-89
2023/07/08 03:46:32;;;;;;;;;;;15.40;99.90;;;;;;4956393;28;20116;-86
2023/07/08 03:48:57;;;;;;;;;;;15.40;99.90;;;;;;4972312;28;19933;-87
2023/07/08 03:51:25;;;;;;;;;;;15.50;99.90;;;;;;4956188;28;19926;-87
2023/07/08 03:53:51;;;;;;;;;;;15.50;99.90;;;;;;4956664;28;20386;-87
2023/07/08 03:56:17;;;;;;;;;;;15.50;99.90;;;;;;4972084;28;19940;-87
2023/07/08 03:58:42;;;;;;;;;;;15.50;99.90;;;;;;4955360;28;19934;-87
2023/07/08 04:01:13;;;;;;;;;;;15.60;99.90;;;;;;4955880;28;19937;-87
2023/07/08 04:03:39;;;;;;;;;;;15.60;99.90;;;;;;4972526;28;19937;-87
2023/07/08 04:06:04;;;;;;;;;;;15.60;99.90;;;;;;4955822;28;20322;-87
2023/07/08 04:08:36;;;;;;;;;;;15.70;99.90;;;;;;4956638;28;19926;-87
2023/07/08 04:11:01;;;;;;;;;;;15.70;99.90;;;;;;4955622;28;19960;-88
2023/07/08 04:13:27;;;;;;;;;;;15.70;99.90;;;;;;4955755;28;19925;-87
2023/07/08 04:15:55;;;;;;;;;;;15.70;99.90;;;;;;4955652;28;20063;-88
2023/07/08 04:18:20;;;;;;;;;;;15.80;99.90;;;;;;4956037;28;19933;-88
2023/07/08 04:20:52;;;;;;;;;;;15.80;99.90;;;;;;4955975;28;19930;-89
2023/07/08 04:23:19;;;;;;;;;;;15.80;99.90;;;;;;4955996;28;20117;-87
2023/07/08 04:25:44;;;;;;;;;;;15.80;99.90;;;;;;4971840;28;19930;-88
2023/07/08 04:28:10;;;;;;;;;;;15.90;99.90;;;;;;4955679;28;19933;-87
2023/07/08 04:30:40;;;;;;;;;;;15.90;99.90;;;;;;4955297;28;19934;-87
2023/07/08 04:33:07;;;;;;;;;;;15.90;99.90;;;;;;4955486;28;19925;-87
2023/07/08 04:35:33;;;;;;;;;;;15.90;99.90;;;;;;4955551;28;19973;-87
2023/07/08 04:38:00;;;;;;;;;;;16.00;99.90;;;;;;4956356;28;19929;-87
2023/07/08 04:40:25;;;;;;;;;;;16.00;99.90;;;;;;4955244;28;19922;-87
2023/07/08 04:42:51;;;;;;;;;;;16.10;99.90;;;;;;4955437;28;20271;-86
2023/07/08 04:45:17;;;;;;;;;;;16.10;99.90;;;;;;4952433;28;19981;-87
2023/07/08 04:47:46;;;;;;;;;;;16.10;99.90;;;;;;4951960;28;19934;-87
2023/07/08 04:50:12;;;;;;;;;;;16.20;99.90;;;;;;4952949;28;19987;-87
2023/07/08 04:52:38;;;;;;;;;;;16.20;99.90;;;;;;4952585;28;20410;-88
2023/07/08 04:55:03;;;;;;;;;;;16.30;99.90;;;;;;4952830;28;20025;-87
2023/07/08 04:57:29;;;;;;;;;;;16.30;99.90;;;;;;4952162;28;19932;-88
2023/07/08 04:59:55;;;;;;;;;;;16.40;99.90;;;;;;4953002;28;20457;-88
2023/07/08 05:02:20;;;;;;;;;;;16.40;99.90;;;;;;4951863;28;19969;-88
2023/07/08 05:04:46;;;;;;;;;;;16.50;99.90;;;;;;4953313;28;20358;-87
2023/07/08 05:07:11;;;;;;;;;;;16.50;99.90;;;;;;4952810;28;19930;-87
2023/07/08 05:09:37;;;;;;;;;;;16.60;99.90;;;;;;4954064;28;19933;-87
2023/07/08 05:12:03;;;;;;;;;;;16.70;99.90;;;;;;4956320;28;19926;-87
2023/07/08 05:14:28;;;;;;;;;;;16.80;99.90;;;;;;4956732;28;20020;-88
2023/07/08 05:16:55;;;;;;;;;;;16.80;99.90;;;;;;4955745;28;19933;-87
2023/07/08 05:19:23;;;;;;;;;;;16.90;99.90;;;;;;4956843;28;19937;-87
2023/07/08 05:21:49;;;;;;;;;;;17.00;99.90;;;;;;4956023;28;19926;-87
2023/07/08 05:24:14;;;;;;;;;;;17.10;99.90;;;;;;4956128;28;19933;-87
2023/07/08 05:26:40;;;;;;;;;;;17.10;99.90;;;;;;4955821;28;19926;-88
2023/07/08 05:29:05;;;;;;;;;;;17.20;99.90;;;;;;4957242;28;19926;-88
2023/07/08 05:31:31;;;;;;;;;;;17.30;99.90;;;;;;4948951;28;19938;-88
2023/07/08 05:33:57;;;;;;;;;;;17.30;99.90;;;;;;4964086;28;19926;-87
2023/07/08 05:36:22;;;;;;;;;;;17.40;99.90;;;;;;4947268;28;19952;-87
2023/07/08 05:38:48;;;;;;;;;;;17.50;99.90;;;;;;4952287;28;19931;-87
2023/07/08 05:41:13;;;;;;;;;;;17.60;99.90;;;;;;4947931;28;20028;-87
2023/07/08 05:43:39;;;;;;;;;;;17.60;99.90;;;;;;4955167;28;19926;-87
2023/07/08 05:46:05;;;;;;;;;;;17.70;99.90;;;;;;4953510;28;19940;-87
2023/07/08 05:48:30;;;;;;;;;;;17.80;99.90;;;;;;4955772;28;20275;-87
2023/07/08 05:50:56;;;;;;;;;;;17.90;99.90;;;;;;4954679;28;19934;-87
2023/07/08 05:53:22;;;;;;;;;;;18.00;99.90;;;;;;4955429;28;19934;-87
2023/07/08 05:55:48;;;;;;;;;;;18.00;99.90;;;;;;4953719;28;19931;-87
2023/07/08 05:58:15;;;;;;;;;;;18.10;99.90;;;;;;4950781;29;19926;-87
2023/07/08 06:00:42;;;;;;;;;;;18.20;99.90;;;;;;4970569;28;20009;-87
2023/07/08 06:03:08;;;;;;;;;;;18.30;99.90;;;;;;4954704;28;20052;-87
2023/07/08 06:05:33;;;;;;;;;;;18.40;99.90;;;;;;4952632;28;19974;-87
2023/07/08 06:07:59;;;;;;;;;;;18.50;99.90;;;;;;4955436;28;20363;-87
2023/07/08 06:10:25;;;;;;;;;;;18.50;99.90;;;;;;4952349;28;19926;-87
2023/07/08 06:12:50;;;;;;;;;;;18.60;99.90;;;;;;4950847;28;19960;-87
2023/07/08 06:15:16;;;;;;;;;;;18.70;99.90;;;;;;4953779;28;19938;-88
2023/07/08 06:17:41;;;;;;;;;;;18.80;99.90;;;;;;4952769;28;19936;-88
2023/07/08 06:20:07;;;;;;;;;;;18.90;99.90;;;;;;4962698;28;19969;-87
2023/07/08 06:22:33;;;;;;;;;;;19.00;99.90;;;;;;4947082;28;20386;-94
2023/07/08 06:24:58;;;;;;;;;;;19.10;99.90;;;;;;4955000;28;19937;-94
2023/07/08 06:27:24;;;;;;;;;;;19.10;99.90;;;;;;4954280;28;19930;-93
2023/07/08 06:29:50;;;;;;;;;;;19.30;99.90;;;;;;4955277;28;20001;-95
2023/07/08 06:32:17;;;;;;;;;;;19.30;99.90;;;;;;4956348;28;20374;-91
2023/07/08 06:34:43;;;;;;;;;;;19.40;99.90;;;;;;4956329;28;20382;-94
2023/07/08 06:37:09;;;;;;;;;;;19.50;99.90;;;;;;4961063;28;20021;-96
2023/07/08 06:39:35;;;;;;;;;;;19.60;99.90;;;;;;4959291;28;20402;-94
2023/07/08 06:42:00;;;;;;;;;;;19.70;99.90;;;;;;4956930;28;19937;-94
2023/07/08 06:44:26;;;;;;;;;;;19.80;99.90;;;;;;4956710;28;19980;-94
2023/07/08 06:46:52;;;;;;;;;;;19.90;99.90;;;;;;4959200;28;20068;-94
2023/07/08 06:49:17;;;;;;;;;;;20.00;99.90;;;;;;4944880;28;19965;-96
2023/07/08 06:51:45;;;;;;;;;;;20.10;99.90;;;;;;4947890;28;20413;-95
2023/07/08 06:54:11;;;;;;;;;;;20.20;99.90;;;;;;4953375;28;19922;-95
2023/07/08 06:56:38;;;;;;;;;;;20.20;99.90;;;;;;4957309;28;19934;-93
2023/07/08 06:59:03;;;;;;;;;;;20.30;99.90;;;;;;4957257;28;19926;-92
2023/07/08 07:01:29;;;;;;;;;;;20.50;99.90;;;;;;4961750;28;20057;-89
2023/07/08 07:03:55;;;;;;;;;;;20.50;99.90;;;;;;4957368;28;20366;-92
2023/07/08 07:06:20;;;;;;;;;;;20.60;99.90;;;;;;4955518;28;19930;-88
2023/07/08 07:08:46;;;;;;;;;;;20.70;99.90;;;;;;4954187;28;19926;-88
2023/07/08 07:11:12;;;;;;;;;;;20.80;99.90;;;;;;4954035;28;20340;-88
2023/07/08 07:13:37;;;;;;;;;;;20.90;99.90;;;;;;4954855;28;20302;-86
2023/07/08 07:16:03;;;;;;;;;;;21.00;99.90;;;;;;4952134;28;19989;-86
2023/07/08 07:18:29;;;;;;;;;;;21.10;99.90;;;;;;4953565;28;19926;-85
2023/07/08 07:20:54;;;;;;;;;;;21.20;99.90;;;;;;4969789;28;19933;-86
2023/07/08 07:23:20;;;;;;;;;;;21.30;99.90;;;;;;4952283;28;20458;-85
2023/07/08 07:25:47;;;;;;;;;;;21.30;99.90;;;;;;4953379;28;19930;-86
2023/07/08 07:28:16;;;;;;;;;;;21.40;99.90;;;;;;4969581;28;20295;-86
2023/07/08 07:30:43;;;;;;;;;;;21.50;99.90;;;;;;4967925;28;20014;-86
2023/07/08 07:33:09;;;;;;;;;;;21.60;99.90;;;;;;4952779;28;19934;-86
2023/07/08 07:35:35;;;;;;;;;;;21.70;99.90;;;;;;4952626;28;19922;-86
2023/07/08 07:38:00;;;;;;;;;;;21.80;99.90;;;;;;4968557;28;19934;-87
2023/07/08 07:40:26;;;;;;;;;;;21.90;99.90;;;;;;4966725;28;20345;-85
2023/07/08 07:42:51;;;;;;;;;;;22.00;99.90;;;;;;4968903;28;20013;-86
2023/07/08 07:45:17;;;;;;;;;;;22.10;99.90;;;;;;4967756;28;20290;-85
2023/07/08 07:47:43;;;;;;;;;;;22.20;99.90;;;;;;4968057;28;20289;-86
2023/07/08 07:50:09;;;;;;;;;;;22.30;99.90;;;;;;4969002;28;19984;-85
2023/07/08 07:52:35;;;;;;;;;;;22.40;99.90;;;;;;4951199;28;19926;-86
2023/07/08 07:55:02;;;;;;;;;;;22.50;99.90;;;;;;4952853;28;19927;-85
2023/07/08 07:57:28;;;;;;;;;;;22.60;99.90;;;;;;4951778;28;19976;-86
2023/07/08 07:59:53;;;;;;;;;;;22.80;99.90;;;;;;4967812;28;19945;-85
2023/07/08 08:02:19;;;;;;;;;;;22.80;99.90;;;;;;4968500;28;19930;-85
2023/07/08 08:04:45;;;;;;;;;;;23.00;99.90;;;;;;4967743;28;19994;-86
2023/07/08 08:07:10;;;;;;;;;;;23.10;99.90;;;;;;4953024;28;19922;-86
2023/07/08 08:09:36;;;;;;;;;;;23.20;99.90;;;;;;4952738;28;20417;-86
2023/07/08 08:12:03;;;;;;;;;;;23.30;99.90;;;;;;4951927;28;20346;-85
2023/07/08 08:14:29;;;;;;;;;;;23.40;99.90;;;;;;4952729;28;19930;-86
2023/07/08 08:16:54;;;;;;;;;;;23.40;99.90;;;;;;4967650;28;19933;-86
2023/07/08 08:19:20;;;;;;;;;;;23.50;99.90;;;;;;4952570;28;19926;-86
2023/07/08 08:21:46;;;;;;;;;;;23.60;99.90;;;;;;4952594;28;20412;-86
2023/07/08 08:24:11;;;;;;;;;;;23.60;99.90;;;;;;4968610;28;20401;-86
2023/07/08 08:26:37;;;;;;;;;;;23.80;99.90;;;;;;4967403;28;20061;-87
2023/07/08 08:29:03;;;;;;;;;;;23.90;99.90;;;;;;4952302;28;19930;-86
2023/07/08 08:31:31;;;;;;;;;;;24.00;99.90;;;;;;4951587;28;19930;-86
2023/07/08 08:33:57;;;;;;;;;;;24.10;99.90;;;;;;4951374;28;20279;-87
2023/07/08 08:36:22;;;;;;;;;;;24.20;99.90;;;;;;4952043;28;19937;-86
2023/07/08 08:38:48;;;;;;;;;;;24.40;99.90;;;;;;4952735;28;19937;-87
2023/07/08 08:41:16;;;;;;;;;;;24.40;99.90;;;;;;4950601;28;20309;-86
2023/07/08 08:43:42;;;;;;;;;;;24.60;99.90;;;;;;4950838;28;19926;-87
2023/07/08 08:46:14;;;;;;;;;;;24.60;99.90;;;;;;4954105;28;19955;-87
2023/07/08 08:48:47;;;;;;;;;;;24.60;99.90;;;;;;4970384;28;20340;-86
2023/07/08 08:51:14;;;;;;;;;;;24.80;99.90;;;;;;4970752;28;19937;-86
2023/07/08 08:53:40;;;;;;;;;;;25.00;99.90;;;;;;4971095;28;20357;-87
2023/07/08 08:56:19;;;;;;;;;;;25.10;99.90;;;;;;4953695;28;20016;-87
2023/07/08 08:58:49;;;;;;;;;;;25.10;99.90;;;;;;4986675;28;20018;-86
2023/07/08 09:01:16;;;;;;;;;;;25.20;99.90;;;;;;4954234;28;19976;-87
2023/07/08 09:03:45;;;;;;;;;;;25.30;99.90;;;;;;4953765;28;19933;-86
2023/07/08 09:06:14;;;;;;;;;;;25.40;99.90;;;;;;4954960;28;19930;-88
2023/07/08 09:08:40;;;;;;;;;;;25.50;99.90;;;;;;4953675;28;19929;-86
2023/07/08 09:11:13;;;;;;;;;;;25.50;99.90;;;;;;4970682;28;19929;-86
2023/07/08 09:13:38;;;;;;;;;;;25.70;99.90;;;;;;4954355;28;19934;-87
2023/07/08 09:16:06;;;;;;;;;;;25.70;99.90;;;;;;4954608;28;19933;-86
2023/07/08 09:18:35;;;;;;;;;;;25.80;99.90;;;;;;4970724;28;19926;-86
2023/07/08 09:21:06;;;;;;;;;;;26.00;99.90;;;;;;4954636;28;20019;-87
2023/07/08 09:23:34;;;;;;;;;;;26.20;99.90;;;;;;4953490;28;19930;-86
2023/07/08 09:26:04;;;;;;;;;;;26.30;99.90;;;;;;4970561;28;19949;-86
2023/07/08 09:28:41;;;;;;;;;;;26.40;99.90;;;;;;4970319;28;20258;-87
2023/07/08 09:31:07;;;;;;;;;;;26.30;99.90;;;;;;4953460;28;19933;-87
2023/07/08 09:33:34;;;;;;;;;;;26.40;99.90;;;;;;4986929;28;19937;-87
2023/07/08 09:36:00;;;;;;;;;;;26.50;99.90;;;;;;4954663;28;20064;-86
2023/07/08 09:38:26;;;;;;;;;;;26.50;99.90;;;;;;4970420;28;19930;-87
2023/07/08 09:40:54;;;;;;;;;;;26.60;99.90;;;;;;4953503;28;20278;-86
2023/07/08 09:43:25;;;;;;;;;;;26.70;99.90;;;;;;4953728;28;20037;-85
2023/07/08 09:45:50;;;;;;;;;;;26.80;99.90;;;;;;4966690;28;19933;-87
2023/07/08 09:48:19;;;;;;;;;;;26.80;99.90;;;;;;4967590;28;19926;-86
2023/07/08 09:50:47;;;;;;;;;;;26.90;99.90;;;;;;4966151;28;19930;-86
2023/07/08 09:53:13;;;;;;;;;;;27.00;99.90;;;;;;4967119;28;19934;-86
2023/07/08 09:55:39;;;;;;;;;;;27.10;99.90;;;;;;4952127;28;19937;-86
2023/07/08 09:58:05;;;;;;;;;;;27.20;99.90;;;;;;4954820;28;19926;-86
2023/07/08 10:00:34;;;;;;;;;;;27.30;99.90;;;;;;4969922;28;19922;-86
2023/07/08 10:03:03;;;;;;;;;;;27.40;99.90;;;;;;4954916;28;20346;-86
2023/07/08 10:05:37;;;;;;;;;;;27.50;99.90;;;;;;4953111;28;19930;-87
2023/07/08 10:08:10;;;;;;;;;;;27.60;99.90;;;;;;4954822;28;19970;-86
2023/07/08 10:10:37;;;;;;;;;;;27.70;99.90;;;;;;4954186;28;19926;-87
2023/07/08 10:13:06;;;;;;;;;;;27.80;99.90;;;;;;4970041;28;20301;-87
2023/07/08 10:15:41;;;;;;;;;;;27.90;99.90;;;;;;4970210;28;19930;-87
2023/07/08 10:18:14;;;;;;;;;;;27.90;99.90;;;;;;4954849;28;19926;-86
2023/07/08 10:20:49;;;;;;;;;;;28.00;99.90;;;;;;4938795;28;19969;-85
2023/07/08 10:23:22;;;;;;;;;;;28.00;99.90;;;;;;4965444;28;19931;-86
2023/07/08 10:25:54;;;;;;;;;;;28.00;99.90;;;;;;4953345;28;19933;-86
2023/07/08 10:28:28;;;;;;;;;;;28.10;99.90;;;;;;4970405;28;19933;-87
2023/07/08 10:31:01;;;;;;;;;;;28.20;99.90;;;;;;4953702;28;20016;-86
2023/07/08 10:33:27;;;;;;;;;;;28.20;99.90;;;;;;4953433;28;19927;-86
2023/07/08 10:36:11;;;;;;;;;;;28.30;99.90;;;;;;4954051;28;19980;-87
2023/07/08 10:38:48;;;;;;;;;;;28.40;99.90;;;;;;4943213;28;20417;-85
2023/07/08 10:41:20;;;;;;;;;;;28.50;99.90;;;;;;4953197;28;19980;-86
2023/07/08 10:44:02;;;;;;;;;;;28.60;99.90;;;;;;4954577;28;19933;-86
2023/07/08 10:46:32;;;;;;;;;;;28.60;99.90;;;;;;4952520;28;20386;-86
2023/07/08 10:49:05;;;;;;;;;;;28.70;99.90;;;;;;4954579;28;19937;-86
2023/07/08 10:51:31;;;;;;;;;;;28.80;99.90;;;;;;4942632;28;19933;-86
2023/07/08 10:54:11;;;;;;;;;;;28.90;99.90;;;;;;4953322;28;20363;-86
2023/07/08 10:56:41;;;;;;;;;;;28.90;99.90;;;;;;4953651;28;20029;-86
2023/07/08 10:59:15;;;;;;;;;;;29.00;99.90;;;;;;4954524;28;19969;-86
2023/07/08 11:01:49;;;;;;;;;;;29.10;99.90;;;;;;4968165;28;19977;-85
2023/07/08 11:04:16;;;;;;;;;;;29.20;99.90;;;;;;4954532;28;19934;-86
2023/07/08 11:06:46;;;;;;;;;;;29.30;99.90;;;;;;4968556;28;19969;-86
2023/07/08 11:09:15;;;;;;;;;;;29.40;99.90;;;;;;4969917;28;19966;-86
2023/07/08 11:11:41;;;;;;;;;;;29.50;99.90;;;;;;4968645;28;19930;-86
2023/07/08 11:14:08;;;;;;;;;;;29.50;99.90;;;;;;4970420;28;19930;-86
2023/07/08 11:16:36;;;;;;;;;;;29.60;99.90;;;;;;4967961;28;19926;-87
2023/07/08 11:19:05;;;;;;;;;;;29.60;99.30;;;;;;4953785;28;20394;-86
2023/07/08 11:21:35;;;;;;;;;;;29.70;99.90;;;;;;4952490;28;20417;-86
2023/07/08 11:24:05;;;;;;;;;;;29.70;98.30;;;;;;4969888;28;19930;-86
2023/07/08 11:26:35;;;;;;;;;;;29.70;99.60;;;;;;4968919;28;19992;-87
2023/07/08 11:29:01;;;;;;;;;;;29.80;99.50;;;;;;4953182;28;20350;-86
2023/07/08 11:31:28;;;;;;;;;;;29.90;99.60;;;;;;4968442;28;20283;-87
2023/07/08 11:33:54;;;;;;;;;;;29.90;98.10;;;;;;4969531;28;19926;-86
2023/07/08 11:36:21;;;;;;;;;;;29.90;99.30;;;;;;4951576;28;19933;-86
2023/07/08 11:38:49;;;;;;;;;;;30.00;98.80;;;;;;4953245;28;19930;-86
2023/07/08 11:41:16;;;;;;;;;;;30.00;98.00;;;;;;4952176;28;20294;-86
2023/07/08 11:43:46;;;;;;;;;;;30.00;98.30;;;;;;4968189;28;19930;-85
2023/07/08 11:46:15;;;;;;;;;;;30.10;97.40;;;;;;4969793;28;20013;-86
2023/07/08 11:48:43;;;;;;;;;;;30.10;97.30;;;;;;4956018;28;19930;-86
2023/07/08 11:51:15;;;;;;;;;;;30.30;97.60;;;;;;4954788;28;19933;-85
2023/07/08 11:53:49;;;;;;;;;;;30.30;96.40;;;;;;4955870;28;20382;-86
2023/07/08 11:56:15;;;;;;;;;;;30.40;96.60;;;;;;4955035;28;20480;-86
2023/07/08 11:58:47;;;;;;;;;;;30.50;95.30;;;;;;4971295;28;19939;-86
2023/07/08 12:01:13;;;;;;;;;;;30.60;96.00;;;;;;4959431;28;19988;-87
2023/07/08 12:03:40;;;;;;;;;;;30.60;95.70;;;;;;4971811;28;19930;-86
2023/07/08 12:06:24;;;;;;;;;;;30.60;95.10;;;;;;4954802;28;20005;-86
2023/07/08 12:08:52;;;;;;;;;;;30.70;95.60;;;;;;4955368;28;19926;-87
2023/07/08 12:11:17;;;;;;;;;;;30.70;94.70;;;;;;4954718;28;20349;-86
2023/07/08 12:13:43;;;;;;;;;;;30.70;95.30;;;;;;4970909;28;20397;-86
2023/07/08 12:16:11;;;;;;;;;;;30.80;95.00;;;;;;4955528;28;19933;-87
2023/07/08 12:18:38;;;;;;;;;;;30.80;94.20;;;;;;4954276;28;19929;-86
2023/07/08 12:21:04;;;;;;;;;;;30.90;94.60;;;;;;4955480;28;19933;-86
2023/07/08 12:23:30;;;;;;;;;;;30.90;95.00;;;;;;4955298;28;19991;-87
2023/07/08 12:25:57;;;;;;;;;;;30.90;93.10;;;;;;4953992;28;19926;-87
2023/07/08 12:28:24;;;;;;;;;;;31.00;94.00;;;;;;4955328;28;20392;-86
2023/07/08 12:30:49;;;;;;;;;;;31.00;94.30;;;;;;4954314;28;20021;-87
2023/07/08 12:33:21;;;;;;;;;;;31.10;93.90;;;;;;4954686;28;20013;-87
2023/07/08 12:35:48;;;;;;;;;;;31.20;94.20;;;;;;4954577;28;19925;-88
2023/07/08 12:38:16;;;;;;;;;;;31.20;93.30;;;;;;4955833;28;19932;-87
2023/07/08 12:40:42;;;;;;;;;;;31.20;93.20;;;;;;4967827;28;20503;-86
2023/07/08 12:43:10;;;;;;;;;;;31.20;92.70;;;;;;4955692;28;20453;-86
2023/07/08 12:45:36;;;;;;;;;;;31.20;92.40;;;;;;4954419;28;20263;-86
2023/07/08 12:48:02;;;;;;;;;;;31.20;92.60;;;;;;4970212;28;20501;-86
2023/07/08 12:50:28;;;;;;;;;;;31.30;91.50;;;;;;4954799;28;20415;-85
2023/07/08 12:52:54;;;;;;;;;;;31.40;91.20;;;;;;4954986;28;20381;-86
2023/07/08 12:55:19;;;;;;;;;;;31.30;91.10;;;;;;4970433;28;20267;-86
2023/07/08 12:57:47;;;;;;;;;;;31.30;91.90;;;;;;4970864;28;20266;-86
2023/07/08 13:00:15;;;;;;;;;;;31.30;92.10;;;;;;4987948;28;19930;-86
2023/07/08 13:02:44;;;;;;;;;;;31.30;91.40;;;;;;4954804;28;19929;-85
2023/07/08 13:05:09;;;;;;;;;;;31.30;91.10;;;;;;4954809;28;20440;-86
2023/07/08 13:07:37;;;;;;;;;;;31.30;91.20;;;;;;4954137;28;20028;-85
2023/07/08 13:10:04;;;;;;;;;;;31.30;90.40;;;;;;4971077;28;19933;-86
2023/07/08 13:12:31;;;;;;;;;;;31.30;90.80;;;;;;4954796;28;20364;-86
2023/07/08 13:14:58;;;;;;;;;;;31.30;90.80;;;;;;4969849;28;19961;-86
2023/07/08 13:17:24;;;;;;;;;;;31.30;89.20;;;;;;4954472;28;20020;-86
2023/07/08 13:19:50;;;;;;;;;;;31.20;89.60;;;;;;4970533;28;20456;-86
2023/07/08 13:22:18;;;;;;;;;;;31.30;90.50;;;;;;4970304;28;19930;-87
2023/07/08 13:24:44;;;;;;;;;;;31.30;90.00;;;;;;4954634;28;20005;-87
2023/07/08 13:27:14;;;;;;;;;;;31.30;90.20;;;;;;4954199;28;20020;-86
2023/07/08 13:29:41;;;;;;;;;;;31.30;88.60;;;;;;4970296;28;19930;-86
2023/07/08 13:32:09;;;;;;;;;;;31.20;90.00;;;;;;4990038;28;20417;-86
2023/07/08 13:34:35;;;;;;;;;;;31.30;89.10;;;;;;4958496;28;19937;-85
2023/07/08 13:37:01;;;;;;;;;;;31.20;89.90;;;;;;4973593;28;20006;-86
2023/07/08 13:39:32;;;;;;;;;;;31.20;90.20;;;;;;4956347;28;19977;-86
2023/07/08 13:41:58;;;;;;;;;;;31.20;90.30;;;;;;4973439;28;19930;-86
2023/07/08 13:44:24;;;;;;;;;;;31.20;89.70;;;;;;4957231;28;19930;-86
2023/07/08 13:46:50;;;;;;;;;;;31.20;88.80;;;;;;4958038;28;20056;-85
2023/07/08 13:49:25;;;;;;;;;;;31.20;87.20;;;;;;4957670;28;20389;-86
2023/07/08 13:51:51;;;;;;;;;;;31.20;89.30;;;;;;4957970;28;20278;-86
2023/07/08 13:54:24;;;;;;;;;;;31.20;90.10;;;;;;4958734;28;20293;-86
2023/07/08 13:56:50;;;;;;;;;;;31.30;88.80;;;;;;4960054;28;19926;-86
2023/07/08 13:59:19;;;;;;;;;;;31.20;88.10;;;;;;4961013;28;19929;-86
2023/07/08 14:01:45;;;;;;;;;;;31.20;87.20;;;;;;4958894;28;19932;-87
2023/07/08 14:04:13;;;;;;;;;;;31.10;88.30;;;;;;4974215;28;19926;-86
2023/07/08 14:06:39;;;;;;;;;;;31.20;88.20;;;;;;4962247;28;19936;-86
2023/07/08 14:09:16;;;;;;;;;;;31.20;89.80;;;;;;4980614;28;19922;-87
2023/07/08 14:11:41;;;;;;;;;;;31.20;90.00;;;;;;4979233;28;19937;-86
2023/07/08 14:14:08;;;;;;;;;;;31.30;88.40;;;;;;4980514;28;19930;-86
2023/07/08 14:16:35;;;;;;;;;;;31.30;88.60;;;;;;4962764;28;20362;-87